Terminal Aerodrome Forecast
Issued by NWS

Home | Current Version | Previous Version | Text Only | Print | Product List | Glossary Off
Versions: 1 2 3 4 5 6 7 8 9 10 11 12 13 14 15 16 17 18 19 20 21 22 23 24 25 26 27 28 29 30 31 32

000
FTUS43 KLOT 221700
TAFORD
TAF
KORD 221735Z 2218/2324 22015G22KT P6SM FEW045 SCT070
     FM230100 24014G20KT P6SM VCTS BKN050CB
      TEMPO 2301/2303 2SM TSRA OVC035CB
     FM230400 34010KT P6SM BKN040
     FM230600 03012G18KT P6SM FEW010 BKN030
     FM231400 02014G20KT P6SM BKN200=

USA.gov is the U.S. government's official web portal to all federal, state and local government web resources and services.